sensor_id;sensor_type;location;lat;lon;timestamp;temperature;humidity
17415;DHT22;8825;48.086;16.426;2023-05-10T00:03:36;13.60;58.20
17415;DHT22;8825;48.086;16.426;2023-05-10T00:06:04;13.60;58.50
17415;DHT22;8825;48.086;16.426;2023-05-10T00:08:32;13.60;58.50
17415;DHT22;8825;48.086;16.426;2023-05-10T00:10:59;13.60;58.60
17415;DHT22;8825;48.086;16.426;2023-05-10T00:13:37;13.60;58.70
17415;DHT22;8825;48.086;16.426;2023-05-10T00:16:05;13.60;58.90
17415;DHT22;8825;48.086;16.426;2023-05-10T00:18:38;13.60;58.80
17415;DHT22;8825;48.086;16.426;2023-05-10T00:21:06;13.60;59.50
17415;DHT22;8825;48.086;16.426;2023-05-10T00:23:34;13.50;59.10
17415;DHT22;8825;48.086;16.426;2023-05-10T00:26:01;13.60;59.20
17415;DHT22;8825;48.086;16.426;2023-05-10T00:28:32;13.60;59.30
17415;DHT22;8825;48.086;16.426;2023-05-10T00:30:59;13.60;59.40
17415;DHT22;8825;48.086;16.426;2023-05-10T00:33:38;13.50;59.60
17415;DHT22;8825;48.086;16.426;2023-05-10T00:36:06;13.50;59.70
17415;DHT22;8825;48.086;16.426;2023-05-10T00:38:53;13.50;59.70
17415;DHT22;8825;48.086;16.426;2023-05-10T00:41:21;13.50;59.70
17415;DHT22;8825;48.086;16.426;2023-05-10T00:44:08;13.50;59.70
17415;DHT22;8825;48.086;16.426;2023-05-10T00:46:36;13.40;59.50
17415;DHT22;8825;48.086;16.426;2023-05-10T00:49:10;13.40;59.80
17415;DHT22;8825;48.086;16.426;2023-05-10T00:51:37;13.40;59.90
17415;DHT22;8825;48.086;16.426;2023-05-10T00:54:05;13.40;60.00
17415;DHT22;8825;48.086;16.426;2023-05-10T00:56:33;13.30;60.00
17415;DHT22;8825;48.086;16.426;2023-05-10T00:59:20;13.30;60.10
17415;DHT22;8825;48.086;16.426;2023-05-10T01:01:48;13.30;59.90
17415;DHT22;8825;48.086;16.426;2023-05-10T01:04:16;13.30;60.30
17415;DHT22;8825;48.086;16.426;2023-05-10T01:06:43;13.30;60.50
17415;DHT22;8825;48.086;16.426;2023-05-10T01:09:11;13.30;60.50
17415;DHT22;8825;48.086;16.426;2023-05-10T01:11:39;13.30;60.50
17415;DHT22;8825;48.086;16.426;2023-05-10T01:14:07;13.20;60.50
17415;DHT22;8825;48.086;16.426;2023-05-10T01:16:37;13.20;60.80
17415;DHT22;8825;48.086;16.426;2023-05-10T01:19:26;13.20;60.90
17415;DHT22;8825;48.086;16.426;2023-05-10T01:35:51;13.00;61.90
17415;DHT22;8825;48.086;16.426;2023-05-10T01:44:09;12.90;62.20
17415;DHT22;8825;48.086;16.426;2023-05-10T01:46:37;12.90;62.30
17415;DHT22;8825;48.086;16.426;2023-05-10T01:49:26;12.90;62.60
17415;DHT22;8825;48.086;16.426;2023-05-10T01:55:02;12.80;62.70
17415;DHT22;8825;48.086;16.426;2023-05-10T01:57:27;12.80;63.00
17415;DHT22;8825;48.086;16.426;2023-05-10T01:59:56;12.70;62.90
17415;DHT22;8825;48.086;16.426;2023-05-10T02:02:27;12.70;63.30
17415;DHT22;8825;48.086;16.426;2023-05-10T02:04:56;12.60;63.50
17415;DHT22;8825;48.086;16.426;2023-05-10T02:07:26;12.60;63.60
17415;DHT22;8825;48.086;16.426;2023-05-10T02:09:56;12.60;63.70
17415;DHT22;8825;48.086;16.426;2023-05-10T02:12:24;12.60;63.60
17415;DHT22;8825;48.086;16.426;2023-05-10T02:14:53;12.60;63.60
17415;DHT22;8825;48.086;16.426;2023-05-10T02:17:21;12.60;63.50
17415;DHT22;8825;48.086;16.426;2023-05-10T02:19:51;12.50;63.60
17415;DHT22;8825;48.086;16.426;2023-05-10T02:22:21;12.50;64.40
17415;DHT22;8825;48.086;16.426;2023-05-10T02:25:09;12.60;63.60
17415;DHT22;8825;48.086;16.426;2023-05-10T02:27:39;12.60;63.60
17415;DHT22;8825;48.086;16.426;2023-05-10T02:30:08;12.50;63.60
17415;DHT22;8825;48.086;16.426;2023-05-10T02:32:38;12.60;63.70
17415;DHT22;8825;48.086;16.426;2023-05-10T02:35:06;12.50;63.70
17415;DHT22;8825;48.086;16.426;2023-05-10T02:37:36;12.50;63.90
17415;DHT22;8825;48.086;16.426;2023-05-10T02:40:05;12.50;64.00
17415;DHT22;8825;48.086;16.426;2023-05-10T02:42:35;12.50;64.10
17415;DHT22;8825;48.086;16.426;2023-05-10T02:45:07;12.50;64.30
17415;DHT22;8825;48.086;16.426;2023-05-10T02:47:34;12.50;64.30
17415;DHT22;8825;48.086;16.426;2023-05-10T02:50:02;12.40;64.60
17415;DHT22;8825;48.086;16.426;2023-05-10T02:52:46;12.40;64.60
17415;DHT22;8825;48.086;16.426;2023-05-10T02:55:12;12.40;64.70
17415;DHT22;8825;48.086;16.426;2023-05-10T02:57:59;12.40;64.80
17415;DHT22;8825;48.086;16.426;2023-05-10T03:00:27;12.40;65.20
17415;DHT22;8825;48.086;16.426;2023-05-10T03:03:04;12.40;65.00
17415;DHT22;8825;48.086;16.426;2023-05-10T03:08:16;12.30;64.90
17415;DHT22;8825;48.086;16.426;2023-05-10T03:11:19;12.30;65.30
17415;DHT22;8825;48.086;16.426;2023-05-10T03:13:53;12.30;65.60
17415;DHT22;8825;48.086;16.426;2023-05-10T03:16:22;12.30;65.60
17415;DHT22;8825;48.086;16.426;2023-05-10T03:21:31;12.20;65.80
17415;DHT22;8825;48.086;16.426;2023-05-10T03:24:07;12.20;65.90
17415;DHT22;8825;48.086;16.426;2023-05-10T03:26:35;12.20;65.90
17415;DHT22;8825;48.086;16.426;2023-05-10T03:29:04;12.20;65.90
17415;DHT22;8825;48.086;16.426;2023-05-10T03:31:33;12.20;65.90
17415;DHT22;8825;48.086;16.426;2023-05-10T03:34:00;12.10;65.90
17415;DHT22;8825;48.086;16.426;2023-05-10T03:36:28;12.10;66.00
17415;DHT22;8825;48.086;16.426;2023-05-10T03:38:55;12.20;66.00
17415;DHT22;8825;48.086;16.426;2023-05-10T03:41:23;12.10;65.90
17415;DHT22;8825;48.086;16.426;2023-05-10T03:44:11;12.10;65.90
17415;DHT22;8825;48.086;16.426;2023-05-10T03:46:38;12.10;65.50
17415;DHT22;8825;48.086;16.426;2023-05-10T03:49:06;12.10;66.00
17415;DHT22;8825;48.086;16.426;2023-05-10T03:51:33;12.00;66.00
17415;DHT22;8825;48.086;16.426;2023-05-10T03:54:01;12.10;66.10
17415;DHT22;8825;48.086;16.426;2023-05-10T03:56:28;12.00;66.00
17415;DHT22;8825;48.086;16.426;2023-05-10T03:59:05;12.00;65.80
17415;DHT22;8825;48.086;16.426;2023-05-10T04:01:34;12.00;66.00
17415;DHT22;8825;48.086;16.426;2023-05-10T04:04:12;12.00;65.90
17415;DHT22;8825;48.086;16.426;2023-05-10T04:06:39;12.00;66.10
17415;DHT22;8825;48.086;16.426;2023-05-10T04:09:07;12.00;66.20
17415;DHT22;8825;48.086;16.426;2023-05-10T04:11:34;12.00;66.10
17415;DHT22;8825;48.086;16.426;2023-05-10T04:14:02;12.10;66.00
17415;DHT22;8825;48.086;16.426;2023-05-10T04:16:29;12.10;65.80
17415;DHT22;8825;48.086;16.426;2023-05-10T04:19:00;12.10;65.60
17415;DHT22;8825;48.086;16.426;2023-05-10T04:21:28;12.10;65.40
17415;DHT22;8825;48.086;16.426;2023-05-10T04:23:55;12.20;65.30
17415;DHT22;8825;48.086;16.426;2023-05-10T04:26:23;12.20;65.30
17415;DHT22;8825;48.086;16.426;2023-05-10T04:29:00;12.20;65.30
17415;DHT22;8825;48.086;16.426;2023-05-10T04:31:28;12.20;65.20
17415;DHT22;8825;48.086;16.426;2023-05-10T04:33:56;12.20;65.20
17415;DHT22;8825;48.086;16.426;2023-05-10T04:36:23;12.20;65.10
17415;DHT22;8825;48.086;16.426;2023-05-10T04:39:00;12.20;65.00
17415;DHT22;8825;48.086;16.426;2023-05-10T04:41:49;12.30;65.10
17415;DHT22;8825;48.086;16.426;2023-05-10T04:44:16;12.30;64.70
17415;DHT22;8825;48.086;16.426;2023-05-10T04:46:44;12.30;65.10
17415;DHT22;8825;48.086;16.426;2023-05-10T04:49:25;12.40;65.30
17415;DHT22;8825;48.086;16.426;2023-05-10T04:51:53;12.40;65.20
17415;DHT22;8825;48.086;16.426;2023-05-10T04:54:21;12.50;65.00
17415;DHT22;8825;48.086;16.426;2023-05-10T04:57:07;12.50;64.90
17415;DHT22;8825;48.086;16.426;2023-05-10T04:59:36;12.60;64.60
17415;DHT22;8825;48.086;16.426;2023-05-10T05:02:04;12.60;64.70
17415;DHT22;8825;48.086;16.426;2023-05-10T05:04:32;12.60;64.50
17415;DHT22;8825;48.086;16.426;2023-05-10T05:06:59;12.70;64.50
17415;DHT22;8825;48.086;16.426;2023-05-10T05:09:27;12.80;64.30
17415;DHT22;8825;48.086;16.426;2023-05-10T05:11:54;12.90;64.10
17415;DHT22;8825;48.086;16.426;2023-05-10T05:14:28;13.00;63.80
17415;DHT22;8825;48.086;16.426;2023-05-10T05:16:56;13.00;63.60
17415;DHT22;8825;48.086;16.426;2023-05-10T05:19:24;13.10;63.40
17415;DHT22;8825;48.086;16.426;2023-05-10T05:21:51;13.20;63.20
17415;DHT22;8825;48.086;16.426;2023-05-10T05:24:19;13.30;63.00
17415;DHT22;8825;48.086;16.426;2023-05-10T05:26:46;13.40;62.40
17415;DHT22;8825;48.086;16.426;2023-05-10T05:29:14;13.40;62.10
17415;DHT22;8825;48.086;16.426;2023-05-10T05:31:42;13.50;62.00
17415;DHT22;8825;48.086;16.426;2023-05-10T05:34:09;13.60;61.90
17415;DHT22;8825;48.086;16.426;2023-05-10T05:36:37;13.70;61.30
17415;DHT22;8825;48.086;16.426;2023-05-10T05:39:05;13.80;62.10
17415;DHT22;8825;48.086;16.426;2023-05-10T05:41:32;13.90;60.70
17415;DHT22;8825;48.086;16.426;2023-05-10T05:44:00;14.00;60.30
17415;DHT22;8825;48.086;16.426;2023-05-10T05:46:48;14.20;60.10
17415;DHT22;8825;48.086;16.426;2023-05-10T05:49:15;14.30;59.70
17415;DHT22;8825;48.086;16.426;2023-05-10T05:51:42;14.40;59.70
17415;DHT22;8825;48.086;16.426;2023-05-10T05:54:10;14.50;59.70
17415;DHT22;8825;48.086;16.426;2023-05-10T05:56:38;14.60;59.60
17415;DHT22;8825;48.086;16.426;2023-05-10T05:59:06;14.80;59.30
17415;DHT22;8825;48.086;16.426;2023-05-10T06:01:33;14.90;59.10
17415;DHT22;8825;48.086;16.426;2023-05-10T06:04:01;15.00;58.70
17415;DHT22;8825;48.086;16.426;2023-05-10T06:06:28;15.10;58.60
17415;DHT22;8825;48.086;16.426;2023-05-10T06:08:56;15.20;58.60
17415;DHT22;8825;48.086;16.426;2023-05-10T06:11:23;15.30;58.40
17415;DHT22;8825;48.086;16.426;2023-05-10T06:13:51;15.40;58.10
17415;DHT22;8825;48.086;16.426;2023-05-10T06:16:19;15.50;57.40
17415;DHT22;8825;48.086;16.426;2023-05-10T06:18:46;15.50;57.10
17415;DHT22;8825;48.086;16.426;2023-05-10T06:21:14;15.60;57.00
17415;DHT22;8825;48.086;16.426;2023-05-10T06:23:42;15.70;57.10
17415;DHT22;8825;48.086;16.426;2023-05-10T06:26:10;15.80;56.60
17415;DHT22;8825;48.086;16.426;2023-05-10T06:28:38;15.90;56.30
17415;DHT22;8825;48.086;16.426;2023-05-10T06:31:05;16.00;55.50
17415;DHT22;8825;48.086;16.426;2023-05-10T06:33:33;16.10;55.70
17415;DHT22;8825;48.086;16.426;2023-05-10T06:36:01;16.10;54.60
17415;DHT22;8825;48.086;16.426;2023-05-10T06:38:29;16.10;54.70
17415;DHT22;8825;48.086;16.426;2023-05-10T06:40:56;16.10;54.20
17415;DHT22;8825;48.086;16.426;2023-05-10T06:43:24;16.10;54.60
17415;DHT22;8825;48.086;16.426;2023-05-10T06:45:52;16.10;54.10
17415;DHT22;8825;48.086;16.426;2023-05-10T06:48:20;16.20;54.40
17415;DHT22;8825;48.086;16.426;2023-05-10T06:50:47;16.20;53.30
17415;DHT22;8825;48.086;16.426;2023-05-10T06:53:15;16.20;53.00
17415;DHT22;8825;48.086;16.426;2023-05-10T06:55:42;16.30;53.80
17415;DHT22;8825;48.086;16.426;2023-05-10T06:58:10;16.40;53.80
17415;DHT22;8825;48.086;16.426;2023-05-10T07:00:37;16.50;53.90
17415;DHT22;8825;48.086;16.426;2023-05-10T07:03:06;16.50;54.30
17415;DHT22;8825;48.086;16.426;2023-05-10T07:05:34;16.60;54.50
17415;DHT22;8825;48.086;16.426;2023-05-10T07:08:02;16.80;54.80
17415;DHT22;8825;48.086;16.426;2023-05-10T07:10:29;16.80;54.20
17415;DHT22;8825;48.086;16.426;2023-05-10T07:12:57;16.80;53.60
17415;DHT22;8825;48.086;16.426;2023-05-10T07:15:24;16.90;54.40
17415;DHT22;8825;48.086;16.426;2023-05-10T07:17:52;17.10;54.50
17415;DHT22;8825;48.086;16.426;2023-05-10T07:20:19;17.20;54.30
17415;DHT22;8825;48.086;16.426;2023-05-10T07:22:47;17.20;54.20
17415;DHT22;8825;48.086;16.426;2023-05-10T07:25:14;17.30;54.40
17415;DHT22;8825;48.086;16.426;2023-05-10T07:27:42;17.30;53.90
17415;DHT22;8825;48.086;16.426;2023-05-10T07:30:10;17.20;53.80
17415;DHT22;8825;48.086;16.426;2023-05-10T07:32:37;17.30;54.90
17415;DHT22;8825;48.086;16.426;2023-05-10T07:35:06;17.40;54.80
17415;DHT22;8825;48.086;16.426;2023-05-10T07:37:33;17.50;54.70
17415;DHT22;8825;48.086;16.426;2023-05-10T07:40:01;17.60;54.60
17415;DHT22;8825;48.086;16.426;2023-05-10T07:42:28;17.70;54.20
17415;DHT22;8825;48.086;16.426;2023-05-10T07:44:56;17.70;54.10
17415;DHT22;8825;48.086;16.426;2023-05-10T07:47:24;17.80;53.20
17415;DHT22;8825;48.086;16.426;2023-05-10T07:49:52;17.80;53.00
17415;DHT22;8825;48.086;16.426;2023-05-10T07:52:19;17.80;53.40
17415;DHT22;8825;48.086;16.426;2023-05-10T07:54:47;17.90;53.10
17415;DHT22;8825;48.086;16.426;2023-05-10T07:57:16;18.00;53.40
17415;DHT22;8825;48.086;16.426;2023-05-10T07:59:44;18.00;52.70
17415;DHT22;8825;48.086;16.426;2023-05-10T08:02:12;18.10;53.00
17415;DHT22;8825;48.086;16.426;2023-05-10T08:04:39;18.10;52.80
17415;DHT22;8825;48.086;16.426;2023-05-10T08:07:26;18.10;53.10
17415;DHT22;8825;48.086;16.426;2023-05-10T08:09:53;18.20;53.00
17415;DHT22;8825;48.086;16.426;2023-05-10T08:12:21;18.30;53.40
17415;DHT22;8825;48.086;16.426;2023-05-10T08:14:48;18.30;51.70
17415;DHT22;8825;48.086;16.426;2023-05-10T08:17:16;18.30;52.30
17415;DHT22;8825;48.086;16.426;2023-05-10T08:19:44;18.40;52.40
17415;DHT22;8825;48.086;16.426;2023-05-10T08:22:11;18.40;52.70
17415;DHT22;8825;48.086;16.426;2023-05-10T08:24:39;18.50;51.90
17415;DHT22;8825;48.086;16.426;2023-05-10T08:27:08;18.60;51.20
17415;DHT22;8825;48.086;16.426;2023-05-10T08:29:36;18.70;51.30
17415;DHT22;8825;48.086;16.426;2023-05-10T08:32:04;18.80;51.40
17415;DHT22;8825;48.086;16.426;2023-05-10T08:34:32;19.00;51.60
17415;DHT22;8825;48.086;16.426;2023-05-10T08:37:00;19.30;50.90
17415;DHT22;8825;48.086;16.426;2023-05-10T08:39:27;19.40;50.60
17415;DHT22;8825;48.086;16.426;2023-05-10T08:41:57;19.60;50.50
17415;DHT22;8825;48.086;16.426;2023-05-10T08:44:26;19.90;49.30
17415;DHT22;8825;48.086;16.426;2023-05-10T08:46:54;20.10;47.90
17415;DHT22;8825;48.086;16.426;2023-05-10T08:49:23;20.40;48.10
17415;DHT22;8825;48.086;16.426;2023-05-10T08:51:54;20.40;47.30
17415;DHT22;8825;48.086;16.426;2023-05-10T08:54:22;20.60;47.20
17415;DHT22;8825;48.086;16.426;2023-05-10T08:56:50;20.80;46.20
17415;DHT22;8825;48.086;16.426;2023-05-10T08:59:17;21.10;46.60
17415;DHT22;8825;48.086;16.426;2023-05-10T09:01:45;21.50;44.10
17415;DHT22;8825;48.086;16.426;2023-05-10T09:04:14;21.60;43.60
17415;DHT22;8825;48.086;16.426;2023-05-10T09:06:42;21.50;44.20
17415;DHT22;8825;48.086;16.426;2023-05-10T09:09:10;21.30;45.00
17415;DHT22;8825;48.086;16.426;2023-05-10T09:11:37;21.30;43.30
17415;DHT22;8825;48.086;16.426;2023-05-10T09:14:05;21.30;43.70
17415;DHT22;8825;48.086;16.426;2023-05-10T09:16:33;21.50;43.40
17415;DHT22;8825;48.086;16.426;2023-05-10T09:19:00;21.70;43.50
17415;DHT22;8825;48.086;16.426;2023-05-10T09:21:29;22.00;42.20
17415;DHT22;8825;48.086;16.426;2023-05-10T09:23:57;22.20;41.70
17415;DHT22;8825;48.086;16.426;2023-05-10T09:26:26;22.40;41.70
17415;DHT22;8825;48.086;16.426;2023-05-10T09:28:56;22.70;41.00
17415;DHT22;8825;48.086;16.426;2023-05-10T09:31:23;22.90;41.00
17415;DHT22;8825;48.086;16.426;2023-05-10T09:33:54;23.20;41.20
17415;DHT22;8825;48.086;16.426;2023-05-10T09:36:54;23.70;40.80
17415;DHT22;8825;48.086;16.426;2023-05-10T09:39:36;24.00;39.30
17415;DHT22;8825;48.086;16.426;2023-05-10T09:42:06;24.10;38.00
17415;DHT22;8825;48.086;16.426;2023-05-10T09:44:34;23.90;38.60
17415;DHT22;8825;48.086;16.426;2023-05-10T09:47:02;23.80;37.90
17415;DHT22;8825;48.086;16.426;2023-05-10T09:49:31;23.50;38.00
17415;DHT22;8825;48.086;16.426;2023-05-10T09:52:04;23.20;37.60
17415;DHT22;8825;48.086;16.426;2023-05-10T09:54:33;22.80;38.40
17415;DHT22;8825;48.086;16.426;2023-05-10T09:57:02;22.60;38.80
17415;DHT22;8825;48.086;16.426;2023-05-10T09:59:30;22.50;39.00
17415;DHT22;8825;48.086;16.426;2023-05-10T10:01:59;22.70;40.10
17415;DHT22;8825;48.086;16.426;2023-05-10T10:04:27;22.90;39.50
17415;DHT22;8825;48.086;16.426;2023-05-10T10:07:03;22.80;38.50
17415;DHT22;8825;48.086;16.426;2023-05-10T10:09:31;22.50;39.40
17415;DHT22;8825;48.086;16.426;2023-05-10T10:12:00;22.30;40.50
17415;DHT22;8825;48.086;16.426;2023-05-10T10:14:29;22.60;40.90
17415;DHT22;8825;48.086;16.426;2023-05-10T10:16:57;23.10;39.40
17415;DHT22;8825;48.086;16.426;2023-05-10T10:22:14;22.90;38.30
17415;DHT22;8825;48.086;16.426;2023-05-10T10:24:42;23.10;39.30
17415;DHT22;8825;48.086;16.426;2023-05-10T10:27:24;23.40;39.40
17415;DHT22;8825;48.086;16.426;2023-05-10T10:35:32;23.70;39.00
17415;DHT22;8825;48.086;16.426;2023-05-10T10:38:00;23.60;36.80
17415;DHT22;8825;48.086;16.426;2023-05-10T10:40:30;23.50;38.30
17415;DHT22;8825;48.086;16.426;2023-05-10T10:42:58;23.60;37.90
17415;DHT22;8825;48.086;16.426;2023-05-10T10:45:27;23.00;36.70
17415;DHT22;8825;48.086;16.426;2023-05-10T10:48:19;22.80;39.00
17415;DHT22;8825;48.086;16.426;2023-05-10T10:50:47;22.80;39.40
17415;DHT22;8825;48.086;16.426;2023-05-10T10:53:14;22.80;39.00
17415;DHT22;8825;48.086;16.426;2023-05-10T10:55:46;22.70;39.20
17415;DHT22;8825;48.086;16.426;2023-05-10T10:58:30;22.50;39.60
17415;DHT22;8825;48.086;16.426;2023-05-10T11:01:16;22.40;40.10
17415;DHT22;8825;48.086;16.426;2023-05-10T11:06:48;22.20;41.10
17415;DHT22;8825;48.086;16.426;2023-05-10T11:09:15;22.10;40.40
17415;DHT22;8825;48.086;16.426;2023-05-10T11:11:54;22.10;41.90
17415;DHT22;8825;48.086;16.426;2023-05-10T11:14:22;22.20;41.00
17415;DHT22;8825;48.086;16.426;2023-05-10T11:16:50;22.00;39.60
17415;DHT22;8825;48.086;16.426;2023-05-10T11:19:18;22.20;41.40
17415;DHT22;8825;48.086;16.426;2023-05-10T11:22:11;22.00;39.90
17415;DHT22;8825;48.086;16.426;2023-05-10T11:24:19;21.90;41.10
17415;DHT22;8825;48.086;16.426;2023-05-10T11:26:51;21.90;40.40
17415;DHT22;8825;48.086;16.426;2023-05-10T11:29:19;21.50;40.80
17415;DHT22;8825;48.086;16.426;2023-05-10T11:31:48;21.50;41.50
17415;DHT22;8825;48.086;16.426;2023-05-10T11:34:29;21.50;42.00
17415;DHT22;8825;48.086;16.426;2023-05-10T11:37:00;21.70;41.60
17415;DHT22;8825;48.086;16.426;2023-05-10T11:39:28;21.90;41.60
17415;DHT22;8825;48.086;16.426;2023-05-10T11:41:57;22.00;41.10
17415;DHT22;8825;48.086;16.426;2023-05-10T11:44:32;22.10;40.80
17415;DHT22;8825;48.086;16.426;2023-05-10T11:47:01;22.20;40.40
17415;DHT22;8825;48.086;16.426;2023-05-10T11:49:29;22.10;39.60
17415;DHT22;8825;48.086;16.426;2023-05-10T11:52:07;22.10;40.20
17415;DHT22;8825;48.086;16.426;2023-05-10T11:54:35;22.10;40.10
17415;DHT22;8825;48.086;16.426;2023-05-10T11:57:03;22.00;40.10
17415;DHT22;8825;48.086;16.426;2023-05-10T11:59:31;21.80;39.10
17415;DHT22;8825;48.086;16.426;2023-05-10T12:01:58;21.70;40.40
17415;DHT22;8825;48.086;16.426;2023-05-10T12:04:26;21.60;40.90
17415;DHT22;8825;48.086;16.426;2023-05-10T12:06:55;21.70;41.90
17415;DHT22;8825;48.086;16.426;2023-05-10T12:09:23;21.90;40.80
17415;DHT22;8825;48.086;16.426;2023-05-10T12:11:54;21.80;39.90
17415;DHT22;8825;48.086;16.426;2023-05-10T12:14:22;21.80;40.60
17415;DHT22;8825;48.086;16.426;2023-05-10T12:16:50;22.00;40.50
17415;DHT22;8825;48.086;16.426;2023-05-10T12:19:19;22.00;39.70
17415;DHT22;8825;48.086;16.426;2023-05-10T12:21:49;22.10;40.00
17415;DHT22;8825;48.086;16.426;2023-05-10T12:24:17;21.90;38.70
17415;DHT22;8825;48.086;16.426;2023-05-10T12:26:45;21.80;40.50
17415;DHT22;8825;48.086;16.426;2023-05-10T12:29:16;21.80;39.90
17415;DHT22;8825;48.086;16.426;2023-05-10T12:31:58;21.80;39.30
17415;DHT22;8825;48.086;16.426;2023-05-10T12:36:56;21.30;38.50
17415;DHT22;8825;48.086;16.426;2023-05-10T12:39:24;21.40;40.30
17415;DHT22;8825;48.086;16.426;2023-05-10T12:41:52;21.70;39.90
17415;DHT22;8825;48.086;16.426;2023-05-10T12:44:19;21.60;40.30
17415;DHT22;8825;48.086;16.426;2023-05-10T12:46:47;21.60;40.20
17415;DHT22;8825;48.086;16.426;2023-05-10T12:49:14;21.60;40.90
17415;DHT22;8825;48.086;16.426;2023-05-10T12:51:43;21.70;40.80
17415;DHT22;8825;48.086;16.426;2023-05-10T12:54:10;21.90;40.70
17415;DHT22;8825;48.086;16.426;2023-05-10T12:56:38;22.10;40.40
17415;DHT22;8825;48.086;16.426;2023-05-10T12:59:07;22.10;39.90
17415;DHT22;8825;48.086;16.426;2023-05-10T13:01:34;22.10;40.20
17415;DHT22;8825;48.086;16.426;2023-05-10T13:04:02;21.90;39.50
17415;DHT22;8825;48.086;16.426;2023-05-10T13:06:29;21.80;40.60
17415;DHT22;8825;48.086;16.426;2023-05-10T13:08:57;22.00;41.40
17415;DHT22;8825;48.086;16.426;2023-05-10T13:11:25;22.20;40.30
17415;DHT22;8825;48.086;16.426;2023-05-10T13:13:52;22.30;40.20
17415;DHT22;8825;48.086;16.426;2023-05-10T13:16:20;22.50;40.50
17415;DHT22;8825;48.086;16.426;2023-05-10T13:18:47;22.70;38.80
17415;DHT22;8825;48.086;16.426;2023-05-10T13:21:15;22.70;39.30
17415;DHT22;8825;48.086;16.426;2023-05-10T13:23:42;22.70;39.00
17415;DHT22;8825;48.086;16.426;2023-05-10T13:26:10;22.60;38.10
17415;DHT22;8825;48.086;16.426;2023-05-10T13:28:37;22.40;37.80
17415;DHT22;8825;48.086;16.426;2023-05-10T13:31:05;22.30;38.40
17415;DHT22;8825;48.086;16.426;2023-05-10T13:33:32;22.30;38.80
17415;DHT22;8825;48.086;16.426;2023-05-10T13:36:00;22.00;38.50
17415;DHT22;8825;48.086;16.426;2023-05-10T13:38:28;21.60;38.50
17415;DHT22;8825;48.086;16.426;2023-05-10T13:40:55;21.20;39.50
17415;DHT22;8825;48.086;16.426;2023-05-10T13:43:24;20.80;40.10
17415;DHT22;8825;48.086;16.426;2023-05-10T13:45:51;20.80;40.70
17415;DHT22;8825;48.086;16.426;2023-05-10T13:48:19;21.00;40.90
17415;DHT22;8825;48.086;16.426;2023-05-10T13:50:46;21.20;41.10
17415;DHT22;8825;48.086;16.426;2023-05-10T13:53:14;21.30;40.40
17415;DHT22;8825;48.086;16.426;2023-05-10T13:55:41;21.40;39.40
17415;DHT22;8825;48.086;16.426;2023-05-10T13:58:09;21.50;40.00
17415;DHT22;8825;48.086;16.426;2023-05-10T14:00:37;21.50;39.40
17415;DHT22;8825;48.086;16.426;2023-05-10T14:03:04;21.70;39.90
17415;DHT22;8825;48.086;16.426;2023-05-10T14:05:33;21.90;38.00
17415;DHT22;8825;48.086;16.426;2023-05-10T14:08:00;21.80;37.30
17415;DHT22;8825;48.086;16.426;2023-05-10T14:10:28;21.70;37.10
17415;DHT22;8825;48.086;16.426;2023-05-10T14:12:56;21.60;37.50
17415;DHT22;8825;48.086;16.426;2023-05-10T14:15:24;21.40;37.60
17415;DHT22;8825;48.086;16.426;2023-05-10T14:17:51;21.30;38.30
17415;DHT22;8825;48.086;16.426;2023-05-10T14:20:19;21.30;37.80
17415;DHT22;8825;48.086;16.426;2023-05-10T14:22:46;21.40;38.00
17415;DHT22;8825;48.086;16.426;2023-05-10T14:25:33;21.40;38.20
17415;DHT22;8825;48.086;16.426;2023-05-10T14:28:01;21.40;37.50
17415;DHT22;8825;48.086;16.426;2023-05-10T14:30:28;21.40;37.80
17415;DHT22;8825;48.086;16.426;2023-05-10T14:32:57;21.50;37.20
17415;DHT22;8825;48.086;16.426;2023-05-10T14:35:24;21.60;37.00
17415;DHT22;8825;48.086;16.426;2023-05-10T14:37:52;21.50;36.20
17415;DHT22;8825;48.086;16.426;2023-05-10T14:40:20;21.30;36.70
17415;DHT22;8825;48.086;16.426;2023-05-10T14:42:47;21.10;38.00
17415;DHT22;8825;48.086;16.426;2023-05-10T14:45:15;21.00;38.10
17415;DHT22;8825;48.086;16.426;2023-05-10T14:47:42;21.00;38.60
17415;DHT22;8825;48.086;16.426;2023-05-10T14:50:10;21.00;38.90
17415;DHT22;8825;48.086;16.426;2023-05-10T14:52:37;21.10;39.30
17415;DHT22;8825;48.086;16.426;2023-05-10T14:55:07;21.10;38.20
17415;DHT22;8825;48.086;16.426;2023-05-10T14:57:54;21.00;38.40
17415;DHT22;8825;48.086;16.426;2023-05-10T15:00:21;20.90;38.50
17415;DHT22;8825;48.086;16.426;2023-05-10T15:02:49;20.70;38.20
17415;DHT22;8825;48.086;16.426;2023-05-10T15:05:17;20.80;39.10
17415;DHT22;8825;48.086;16.426;2023-05-10T15:07:44;20.80;39.40
17415;DHT22;8825;48.086;16.426;2023-05-10T15:10:12;20.80;39.80
17415;DHT22;8825;48.086;16.426;2023-05-10T15:12:40;20.90;39.90
17415;DHT22;8825;48.086;16.426;2023-05-10T15:15:08;20.90;40.10
17415;DHT22;8825;48.086;16.426;2023-05-10T15:17:35;21.00;40.00
17415;DHT22;8825;48.086;16.426;2023-05-10T15:20:03;21.00;37.90
17415;DHT22;8825;48.086;16.426;2023-05-10T15:22:31;21.00;39.30
17415;DHT22;8825;48.086;16.426;2023-05-10T15:24:59;21.10;39.70
17415;DHT22;8825;48.086;16.426;2023-05-10T15:27:26;21.10;40.00
17415;DHT22;8825;48.086;16.426;2023-05-10T15:29:54;21.10;40.50
17415;DHT22;8825;48.086;16.426;2023-05-10T15:32:21;21.10;40.10
17415;DHT22;8825;48.086;16.426;2023-05-10T15:34:49;21.10;40.30
17415;DHT22;8825;48.086;16.426;2023-05-10T15:37:16;21.00;40.20
17415;DHT22;8825;48.086;16.426;2023-05-10T15:39:44;21.00;40.60
17415;DHT22;8825;48.086;16.426;2023-05-10T15:42:12;21.00;40.60
17415;DHT22;8825;48.086;16.426;2023-05-10T15:44:39;21.00;40.70
17415;DHT22;8825;48.086;16.426;2023-05-10T15:47:07;21.00;40.40
17415;DHT22;8825;48.086;16.426;2023-05-10T15:49:35;20.90;40.70
17415;DHT22;8825;48.086;16.426;2023-05-10T15:52:02;20.80;40.30
17415;DHT22;8825;48.086;16.426;2023-05-10T15:54:30;20.80;40.30
17415;DHT22;8825;48.086;16.426;2023-05-10T15:56:57;20.70;40.20
17415;DHT22;8825;48.086;16.426;2023-05-10T15:59:25;20.70;40.50
17415;DHT22;8825;48.086;16.426;2023-05-10T16:01:53;20.70;40.80
17415;DHT22;8825;48.086;16.426;2023-05-10T16:04:21;20.70;41.00
17415;DHT22;8825;48.086;16.426;2023-05-10T16:06:49;20.50;39.70
17415;DHT22;8825;48.086;16.426;2023-05-10T16:09:16;20.40;39.90
17415;DHT22;8825;48.086;16.426;2023-05-10T16:11:44;20.40;40.40
17415;DHT22;8825;48.086;16.426;2023-05-10T16:14:11;20.40;41.00
17415;DHT22;8825;48.086;16.426;2023-05-10T16:16:39;20.40;41.00
17415;DHT22;8825;48.086;16.426;2023-05-10T16:19:06;20.40;41.10
17415;DHT22;8825;48.086;16.426;2023-05-10T16:21:34;20.30;40.80
17415;DHT22;8825;48.086;16.426;2023-05-10T16:24:02;20.20;41.20
17415;DHT22;8825;48.086;16.426;2023-05-10T16:26:30;20.20;40.70
17415;DHT22;8825;48.086;16.426;2023-05-10T16:28:57;20.20;41.00